createdAt,value
2023-01-05T00:00:31.169Z,58.68
2023-01-05T00:01:31.079Z,59.17
2023-01-05T00:02:31.191Z,59.77
2023-01-05T00:03:31.120Z,60.24
2023-01-05T00:04:31.074Z,60.72
2023-01-05T00:05:31.021Z,61.52
2023-01-05T00:06:31.043Z,62.07
2023-01-05T00:07:30.997Z,62.35
2023-01-05T00:08:36.656Z,62.77
2023-01-05T00:09:31.019Z,63.15
2023-01-05T00:10:30.979Z,63.82
2023-01-05T00:11:30.946Z,64.31
2023-01-05T00:12:30.952Z,64.96
2023-01-05T00:13:30.922Z,65.72
2023-01-05T00:14:30.968Z,65.98
2023-01-05T00:15:30.905Z,66.72
2023-01-05T00:16:30.994Z,67.04
2023-01-05T00:17:30.886Z,67.53
2023-01-05T00:18:30.856Z,67.58
2023-01-05T00:19:30.851Z,67.80
2023-01-05T00:20:30.863Z,68.46
2023-01-05T00:21:30.814Z,68.52
2023-01-05T00:22:31.013Z,68.74
2023-01-05T00:23:30.787Z,69.20
2023-01-05T00:24:30.805Z,69.20
2023-01-05T00:25:30.794Z,69.37
2023-01-05T00:26:30.779Z,69.72
2023-01-05T00:27:30.730Z,69.83
2023-01-05T00:28:30.734Z,70.18
2023-01-05T00:29:30.739Z,70.24
2023-01-05T00:30:30.747Z,70.60
2023-01-05T00:31:30.746Z,70.66
2023-01-05T00:32:30.684Z,70.66
2023-01-05T00:33:30.643Z,70.66
2023-01-05T00:34:30.645Z,71.02
2023-01-05T00:35:30.641Z,71.26
2023-01-05T00:36:30.615Z,71.14
2023-01-05T00:37:30.614Z,71.56
2023-01-05T00:38:30.605Z,72.06
2023-01-05T00:39:30.583Z,71.81
2023-01-05T00:40:30.564Z,72.37
2023-01-05T00:41:30.566Z,72.43
2023-01-05T00:42:30.557Z,72.31
2023-01-05T00:43:30.539Z,72.56
2023-01-05T00:44:30.518Z,72.37
2023-01-05T00:45:30.582Z,73.06
2023-01-05T00:46:30.496Z,73.13
2023-01-05T00:47:30.465Z,73.64
2023-01-05T00:48:30.476Z,74.23
2023-01-05T00:49:30.468Z,74.69
2023-01-05T00:50:30.444Z,75.09
2023-01-05T00:51:30.439Z,75.77
2023-01-05T00:52:30.416Z,76.05
2023-01-05T00:53:30.427Z,76.96
2023-01-05T00:54:30.442Z,77.45
2023-01-05T00:55:30.394Z,77.89
2023-01-05T00:56:30.352Z,78.76
2023-01-05T00:57:30.367Z,79.06
2023-01-05T00:58:30.330Z,79.36
2023-01-05T00:59:30.303Z,79.97
2023-01-05T01:00:30.300Z,80.74
2023-01-05T01:01:30.369Z,81.53
2023-01-05T01:02:30.362Z,81.53
2023-01-05T01:03:30.294Z,82.25
2023-01-05T01:04:30.272Z,82.90
2023-01-05T01:05:30.246Z,83.81
2023-01-05T01:06:30.231Z,84.49
2023-01-05T01:07:30.225Z,86.32
2023-01-05T01:08:30.190Z,88.22
2023-01-05T01:09:30.180Z,90.03
2023-01-05T01:10:30.171Z,92.82
2023-01-05T01:11:30.179Z,94.39
2023-01-05T01:12:30.183Z,93.94
2023-01-05T01:13:30.765Z,94.31
2023-01-05T01:14:30.114Z,94.58
2023-01-05T01:15:30.135Z,94.58
2023-01-05T01:16:30.143Z,94.37
2023-01-05T01:17:30.110Z,94.90
2023-01-05T01:18:30.047Z,95.28
2023-01-05T01:19:30.082Z,95.82
2023-01-05T01:20:30.052Z,96.60
2023-01-05T01:21:30.053Z,96.26
2023-01-05T01:22:30.058Z,97.21
2023-01-05T01:23:30.049Z,97.72
2023-01-05T01:24:30.052Z,98.41
2023-01-05T01:25:30.643Z,99.41
2023-01-05T01:26:29.953Z,99.76
2023-01-05T01:27:29.974Z,100.72
2023-01-05T01:28:30.003Z,100.72
2023-01-05T01:29:29.940Z,100.00
2023-01-05T01:30:30.081Z,100.00
2023-01-05T01:31:29.871Z,99.70
2023-01-05T01:32:29.918Z,100.12
2023-01-05T01:33:29.865Z,99.05
2023-01-05T01:34:29.835Z,99.29
2023-01-05T01:35:29.834Z,99.88
2023-01-05T01:36:29.816Z,100.90
2023-01-05T01:37:29.805Z,101.27
2023-01-05T01:38:29.789Z,101.95
2023-01-05T01:39:29.763Z,101.76
2023-01-05T01:40:29.747Z,102.20
2023-01-05T01:41:29.743Z,102.57
2023-01-05T01:42:29.743Z,103.01
2023-01-05T01:43:29.737Z,103.59
2023-01-05T01:44:29.688Z,104.04
2023-01-05T01:45:29.807Z,104.88
2023-01-05T01:46:29.795Z,104.82
2023-01-05T01:47:29.668Z,105.28
2023-01-05T01:48:29.657Z,106.82
2023-01-05T01:49:29.626Z,108.27
2023-01-05T01:50:29.687Z,109.19
2023-01-05T01:51:29.624Z,108.69
2023-01-05T01:52:29.595Z,109.91
2023-01-05T01:53:29.582Z,110.20
2023-01-05T01:54:29.559Z,110.63
2023-01-05T01:55:29.558Z,109.84
2023-01-05T01:56:29.569Z,109.84
2023-01-05T01:57:29.532Z,110.71
2023-01-05T01:58:29.535Z,110.42
2023-01-05T01:59:29.537Z,111.15
2023-01-05T02:00:29.486Z,111.44
2023-01-05T02:01:29.568Z,111.67
2023-01-05T02:02:29.641Z,111.74
2023-01-05T02:03:29.454Z,112.34
2023-01-05T02:04:29.500Z,113.25
2023-01-05T02:05:29.456Z,114.41
2023-01-05T02:06:29.439Z,115.20
2023-01-05T02:07:29.414Z,117.05
2023-01-05T02:08:29.362Z,117.79
2023-01-05T02:09:29.376Z,119.05
2023-01-05T02:10:29.365Z,119.47
2023-01-05T02:11:29.337Z,121.03
2023-01-05T02:12:29.384Z,122.26
2023-01-05T02:13:31.654Z,123.07
2023-01-05T02:14:29.308Z,126.03
2023-01-05T02:15:29.356Z,128.85
2023-01-05T02:16:29.343Z,130.76
2023-01-05T02:17:29.275Z,132.31
2023-01-05T02:18:29.252Z,134.32
2023-01-05T02:19:29.250Z,136.62
2023-01-05T02:20:29.205Z,137.52
2023-01-05T02:21:29.191Z,138.89
2023-01-05T02:22:29.230Z,139.35
2023-01-05T02:23:29.165Z,140.52
2023-01-05T02:24:29.161Z,142.80
2023-01-05T02:25:29.175Z,144.65
2023-01-05T02:26:29.156Z,147.71
2023-01-05T02:27:29.128Z,151.17
2023-01-05T02:28:29.148Z,153.53
2023-01-05T02:29:29.093Z,157.72
2023-01-05T02:30:29.133Z,161.52
2023-01-05T02:31:29.092Z,164.70
2023-01-05T02:32:29.057Z,166.67
2023-01-05T02:33:29.062Z,168.68
2023-01-05T02:34:29.046Z,172.50
2023-01-05T02:35:29.024Z,175.39
2023-01-05T02:36:29.144Z,180.30
2023-01-05T02:37:28.980Z,183.86
2023-01-05T02:38:29.036Z,187.60
2023-01-05T02:39:28.985Z,192.64
2023-01-05T02:40:28.944Z,197.38
2023-01-05T02:41:28.974Z,202.23
2023-01-05T02:42:28.906Z,205.25
2023-01-05T02:43:28.926Z,208.90
2023-01-05T02:44:28.906Z,213.64
2023-01-05T02:45:28.916Z,217.45
2023-01-05T02:46:28.914Z,223.65
2023-01-05T02:47:28.904Z,232.82
2023-01-05T02:48:28.857Z,240.12
2023-01-05T02:49:28.851Z,244.76
2023-01-05T02:50:28.826Z,249.20
2023-01-05T02:51:28.791Z,256.18
2023-01-05T02:52:28.793Z,259.82
2023-01-05T02:53:28.773Z,263.35
2023-01-05T02:54:28.798Z,269.16
2023-01-05T02:55:28.742Z,272.50
2023-01-05T02:56:28.730Z,275.69
2023-01-05T02:57:28.741Z,280.15
2023-01-05T02:58:28.729Z,284.26
2023-01-05T02:59:28.690Z,288.49
2023-01-05T03:00:28.702Z,296.28
2023-01-05T03:01:28.804Z,304.22
2023-01-05T03:02:28.849Z,309.36
2023-01-05T03:03:28.677Z,312.89
2023-01-05T03:04:28.630Z,320.50
2023-01-05T03:05:28.620Z,323.97
2023-01-05T03:06:28.604Z,326.21
2023-01-05T03:07:28.644Z,330.14
2023-01-05T03:08:32.786Z,333.48
2023-01-05T03:09:28.569Z,335.18
2023-01-05T03:10:28.550Z,340.72
2023-01-05T03:11:28.595Z,345.01
2023-01-05T03:12:28.538Z,349.77
2023-01-05T03:13:28.535Z,350.52
2023-01-05T03:14:28.493Z,348.66
2023-01-05T03:15:28.507Z,350.89
2023-01-05T03:16:28.472Z,352.77
2023-01-05T03:17:28.460Z,359.70
2023-01-05T03:18:28.447Z,364.48
2023-01-05T03:19:28.426Z,368.97
2023-01-05T03:20:28.411Z,373.58
2023-01-05T03:21:28.456Z,381.60
2023-01-05T03:22:28.403Z,384.67
2023-01-05T03:23:28.408Z,385.34
2023-01-05T03:24:28.357Z,385.34
2023-01-05T03:25:28.340Z,386.67
2023-01-05T03:26:28.357Z,386.67
2023-01-05T03:27:28.354Z,387.34
2023-01-05T03:28:28.307Z,387.79
2023-01-05T03:29:28.330Z,391.42
2023-01-05T03:30:28.281Z,391.88
2023-01-05T03:31:28.290Z,393.72
2023-01-05T03:32:34.820Z,393.26
2023-01-05T03:33:28.239Z,395.58
2023-01-05T03:34:28.228Z,401.04
2023-01-05T03:35:28.230Z,405.90
2023-01-05T03:36:28.232Z,411.39
2023-01-05T03:37:28.224Z,415.48
2023-01-05T03:38:28.158Z,418.86
2023-01-05T03:39:28.166Z,420.70
2023-01-05T03:40:28.176Z,424.43
2023-01-05T03:41:28.141Z,424.97
2023-01-05T03:42:28.127Z,426.33
2023-01-05T03:43:28.113Z,428.78
2023-01-05T03:44:28.088Z,426.87
2023-01-05T03:45:28.066Z,427.14
2023-01-05T03:46:28.088Z,425.78
2023-01-05T03:47:28.056Z,425.78
2023-01-05T03:48:28.067Z,425.24
2023-01-05T03:49:28.056Z,430.16
2023-01-05T03:50:28.064Z,434.35
2023-01-05T03:51:28.005Z,441.51
2023-01-05T03:52:27.971Z,449.52
2023-01-05T03:53:28.009Z,457.82
2023-01-05T03:54:27.956Z,466.11
2023-01-05T03:55:27.938Z,473.69
2023-01-05T03:56:27.941Z,480.84
2023-01-05T03:57:27.910Z,489.99
2023-01-05T03:58:27.900Z,494.70
2023-01-05T03:59:27.887Z,502.50
2023-01-05T04:00:27.861Z,500.99
2023-01-05T04:01:27.895Z,504.01
2023-01-05T04:02:28.000Z,504.01
2023-01-05T04:03:31.642Z,500.62
2023-01-05T04:04:27.820Z,498.01
2023-01-05T04:05:27.813Z,498.38
2023-01-05T04:06:27.796Z,498.01
2023-01-05T04:07:27.772Z,497.27
2023-01-05T04:08:27.774Z,496.54
2023-01-05T04:09:27.759Z,493.97
2023-01-05T04:10:27.737Z,492.88
2023-01-05T04:11:27.718Z,492.52
2023-01-05T04:12:27.728Z,498.76
2023-01-05T04:13:27.703Z,492.52
2023-01-05T04:14:27.683Z,493.61
2023-01-05T04:15:27.715Z,491.43
2023-01-05T04:16:27.702Z,489.28
2023-01-05T04:17:27.629Z,486.43
2023-01-05T04:18:27.649Z,487.14
2023-01-05T04:19:27.634Z,485.02
2023-01-05T04:20:27.596Z,491.79
2023-01-05T04:21:27.659Z,488.21
2023-01-05T04:22:27.821Z,486.08
2023-01-05T04:23:27.571Z,474.03
2023-01-05T04:24:27.593Z,455.64
2023-01-05T04:25:27.532Z,434.91
2023-01-05T04:26:27.535Z,411.14
2023-01-05T04:27:27.513Z,388.24
2023-01-05T04:28:27.491Z,365.69
2023-01-05T04:29:27.468Z,348.66
2023-01-05T04:30:27.474Z,333.14
2023-01-05T04:31:27.508Z,320.19
2023-01-05T04:32:27.599Z,308.49
2023-01-05T04:33:27.418Z,300.61
2023-01-05T04:34:27.422Z,297.89
2023-01-05T04:35:27.406Z,294.69
2023-01-05T04:36:27.411Z,294.69
2023-01-05T04:37:27.403Z,296.55
2023-01-05T04:38:27.380Z,294.95
2023-01-05T04:39:27.344Z,296.28
2023-01-05T04:40:27.342Z,294.95
2023-01-05T04:41:27.333Z,296.81
2023-01-05T04:42:27.306Z,295.48
2023-01-05T04:43:27.299Z,295.48
2023-01-05T04:44:27.290Z,296.28
2023-01-05T04:45:27.264Z,299.79
2023-01-05T04:46:27.282Z,302.54
2023-01-05T04:47:27.225Z,308.20
2023-01-05T04:48:27.257Z,310.53
2023-01-05T04:49:27.225Z,312.59
2023-01-05T04:50:27.209Z,311.70
2023-01-05T04:51:27.195Z,310.82
2023-01-05T04:52:27.184Z,309.36
2023-01-05T04:53:27.181Z,304.50
2023-01-05T04:54:27.146Z,298.70
2023-01-05T04:55:27.134Z,293.38
2023-01-05T04:56:27.115Z,285.74
2023-01-05T04:57:27.122Z,274.55
2023-01-05T04:58:27.084Z,260.64
2023-01-05T04:59:27.093Z,244.57
2023-01-05T05:00:27.067Z,227.82
2023-01-05T05:01:27.162Z,210.63
2023-01-05T05:02:27.293Z,196.55
2023-01-05T05:03:32.769Z,186.11
2023-01-05T05:04:27.044Z,172.86
2023-01-05T05:05:26.985Z,161.99
2023-01-05T05:06:27.034Z,153.25
2023-01-05T05:07:27.005Z,144.52
2023-01-05T05:08:26.970Z,136.85
2023-01-05T05:09:26.943Z,130.15
2023-01-05T05:10:26.961Z,125.00
2023-01-05T05:11:26.930Z,119.22
2023-01-05T05:12:26.902Z,113.87
2023-01-05T05:13:26.896Z,109.76
2023-01-05T05:14:26.874Z,105.94
2023-01-05T05:15:26.946Z,102.13
2023-01-05T05:16:26.930Z,99.11
2023-01-05T05:17:26.865Z,95.88
2023-01-05T05:18:26.814Z,95.14
2023-01-05T05:19:26.847Z,92.72
2023-01-05T05:20:26.804Z,90.61
2023-01-05T05:21:26.802Z,88.60
2023-01-05T05:22:26.803Z,86.67
2023-01-05T05:23:26.823Z,84.66
2023-01-05T05:24:26.765Z,83.56
2023-01-05T05:25:26.740Z,81.84
2023-01-05T05:26:26.713Z,80.20
2023-01-05T05:27:26.724Z,79.29
2023-01-05T05:28:26.716Z,77.74
2023-01-05T05:29:26.720Z,76.46
2023-01-05T05:30:26.702Z,75.29
2023-01-05T05:31:26.734Z,74.43
2023-01-05T05:32:26.675Z,73.96
2023-01-05T05:33:26.695Z,73.00
2023-01-05T05:34:26.685Z,72.43
2023-01-05T05:35:26.619Z,71.44
2023-01-05T05:36:26.718Z,70.66
2023-01-05T05:37:26.600Z,70.18
2023-01-05T05:38:26.610Z,69.78
2023-01-05T05:39:26.643Z,69.20
2023-01-05T05:40:26.666Z,68.80
2023-01-05T05:41:26.632Z,68.18
2023-01-05T05:42:26.625Z,68.07
2023-01-05T05:43:26.588Z,67.58
2023-01-05T05:44:26.479Z,67.20
2023-01-05T05:45:26.457Z,67.25
2023-01-05T05:46:26.475Z,66.88
2023-01-05T05:47:26.433Z,66.51
2023-01-05T05:48:26.454Z,66.09
2023-01-05T05:49:26.427Z,66.03
2023-01-05T05:50:26.412Z,65.62
2023-01-05T05:51:26.391Z,65.42
2023-01-05T05:52:26.386Z,65.36
2023-01-05T05:53:26.345Z,65.31
2023-01-05T05:54:26.373Z,65.52
2023-01-05T05:55:26.364Z,65.26
2023-01-05T05:56:26.322Z,65.52
2023-01-05T05:57:26.283Z,65.31
2023-01-05T05:58:26.290Z,65.67
2023-01-05T05:59:26.316Z,65.52
2023-01-05T06:00:26.282Z,66.09
2023-01-05T06:01:26.262Z,66.24
2023-01-05T06:02:26.263Z,66.40
2023-01-05T06:03:26.291Z,66.29
2023-01-05T06:04:26.215Z,66.82
2023-01-05T06:05:26.212Z,67.04
2023-01-05T06:06:26.184Z,67.15
2023-01-05T06:07:26.165Z,66.93
2023-01-05T06:08:26.214Z,67.20
2023-01-05T06:09:26.144Z,66.99
2023-01-05T06:10:26.178Z,66.82
2023-01-05T06:11:26.109Z,66.56
2023-01-05T06:12:26.086Z,66.56
2023-01-05T06:13:26.106Z,66.09
2023-01-05T06:14:26.094Z,65.83
2023-01-05T06:15:26.092Z,65.67
2023-01-05T06:16:26.123Z,65.62
2023-01-05T06:17:26.019Z,65.21
2023-01-05T06:18:26.047Z,64.51
2023-01-05T06:19:26.039Z,64.36
2023-01-05T06:20:25.998Z,63.92
2023-01-05T06:21:26.006Z,63.77
2023-01-05T06:22:25.959Z,63.48
2023-01-05T06:23:25.956Z,63.24
2023-01-05T06:24:25.965Z,62.96
2023-01-05T06:25:25.927Z,62.67
2023-01-05T06:26:25.917Z,62.44
2023-01-05T06:27:25.905Z,61.89
2023-01-05T06:28:25.889Z,61.75
2023-01-05T06:29:26.699Z,61.57
2023-01-05T06:30:25.864Z,61.25
2023-01-05T06:31:25.970Z,61.21
2023-01-05T06:32:25.823Z,61.30
2023-01-05T06:33:25.825Z,61.07
2023-01-05T06:34:25.830Z,61.39
2023-01-05T06:35:25.789Z,61.34
2023-01-05T06:36:25.780Z,61.66
2023-01-05T06:37:25.762Z,61.66
2023-01-05T06:38:25.771Z,61.93
2023-01-05T06:39:25.756Z,62.07
2023-01-05T06:40:25.747Z,62.25
2023-01-05T06:41:25.703Z,62.39
2023-01-05T06:42:25.733Z,62.49
2023-01-05T06:43:25.669Z,62.58
2023-01-05T06:44:25.665Z,62.67
2023-01-05T06:45:25.721Z,63.15
2023-01-05T06:46:25.686Z,63.53
2023-01-05T06:47:25.626Z,63.77
2023-01-05T06:48:25.658Z,63.87
2023-01-05T06:49:25.607Z,63.97
2023-01-05T06:50:25.597Z,64.31
2023-01-05T06:51:25.589Z,64.21
2023-01-05T06:52:25.581Z,64.96
2023-01-05T06:53:25.548Z,65.01
2023-01-05T06:54:25.534Z,65.31
2023-01-05T06:55:25.525Z,65.72
2023-01-05T06:56:25.525Z,66.24
2023-01-05T06:57:25.508Z,66.61
2023-01-05T06:58:25.484Z,67.25
2023-01-05T06:59:25.480Z,68.07
2023-01-05T07:00:25.495Z,68.07
2023-01-05T07:01:25.589Z,68.24
2023-01-05T07:02:25.419Z,69.08
2023-01-05T07:03:25.431Z,69.72
2023-01-05T07:04:25.572Z,70.18
2023-01-05T07:05:25.398Z,70.72
2023-01-05T07:06:25.404Z,71.08
2023-01-05T07:07:25.376Z,71.62
2023-01-05T07:08:25.350Z,71.99
2023-01-05T07:09:25.345Z,71.62
2023-01-05T07:10:25.328Z,71.75
2023-01-05T07:11:25.294Z,71.62
2023-01-05T07:12:25.310Z,71.69
2023-01-05T07:13:25.286Z,71.32
2023-01-05T07:14:25.284Z,71.20
2023-01-05T07:15:25.260Z,71.08
2023-01-05T07:16:25.297Z,70.96
2023-01-05T07:17:25.250Z,71.20
2023-01-05T07:18:25.216Z,70.72
2023-01-05T07:19:25.204Z,71.26
2023-01-05T07:20:25.261Z,71.75
2023-01-05T07:21:25.159Z,72.06
2023-01-05T07:22:25.189Z,72.31
2023-01-05T07:23:25.141Z,72.06
2023-01-05T07:24:25.129Z,72.06
2023-01-05T07:25:25.141Z,72.06
2023-01-05T07:26:25.141Z,72.12
2023-01-05T07:27:25.077Z,71.62
2023-01-05T07:28:25.090Z,71.20
2023-01-05T07:29:25.079Z,70.66
2023-01-05T07:30:25.063Z,69.78
2023-01-05T07:31:25.067Z,69.72
2023-01-05T07:32:25.057Z,69.08
2023-01-05T07:33:25.029Z,68.80
2023-01-05T07:34:24.991Z,68.63
2023-01-05T07:35:24.974Z,69.20
2023-01-05T07:36:24.999Z,69.31
2023-01-05T07:37:25.381Z,70.12
2023-01-05T07:38:24.936Z,70.42
2023-01-05T07:39:24.940Z,71.56
2023-01-05T07:40:24.971Z,71.93
2023-01-05T07:41:24.891Z,72.87
2023-01-05T07:42:24.884Z,74.16
2023-01-05T07:43:24.899Z,75.57
2023-01-05T07:44:24.881Z,77.31
2023-01-05T07:45:24.940Z,78.76
2023-01-05T07:46:24.894Z,79.29
2023-01-05T07:47:24.817Z,80.28
2023-01-05T07:48:24.838Z,81.21
2023-01-05T07:49:24.811Z,82.00
2023-01-05T07:50:24.789Z,82.73
2023-01-05T07:51:24.774Z,83.23
2023-01-05T07:52:24.769Z,83.64
2023-01-05T07:53:24.761Z,85.17
2023-01-05T07:54:24.747Z,86.40
2023-01-05T07:55:24.719Z,88.41
2023-01-05T07:56:24.697Z,90.22
2023-01-05T07:57:24.688Z,92.61
2023-01-05T07:58:24.709Z,94.92
2023-01-05T07:59:24.678Z,94.85
2023-01-05T08:00:24.658Z,98.01
2023-01-05T08:01:24.778Z,102.45
2023-01-05T08:02:24.680Z,106.21
2023-01-05T08:03:24.631Z,112.72
2023-01-05T08:04:24.677Z,120.76
2023-01-05T08:05:24.595Z,129.14
2023-01-05T08:06:24.589Z,136.29
2023-01-05T08:07:24.590Z,143.65
2023-01-05T08:08:25.011Z,151.04
2023-01-05T08:09:24.530Z,157.42
2023-01-05T08:10:24.546Z,163.57
2023-01-05T08:11:24.519Z,169.19
2023-01-05T08:12:24.504Z,174.84
2023-01-05T08:13:24.541Z,183.06
2023-01-05T08:14:24.475Z,186.01
2023-01-05T08:15:24.459Z,190.75
2023-01-05T08:16:24.519Z,197.02
2023-01-05T08:17:24.445Z,204.99
2023-01-05T08:18:24.435Z,215.46
2023-01-05T08:19:24.470Z,221.24
2023-01-05T08:20:24.532Z,231.67
2023-01-05T08:21:24.427Z,240.12
2023-01-05T08:22:24.399Z,245.85
2023-01-05T08:23:25.180Z,254.40
2023-01-05T08:24:24.354Z,263.14
2023-01-05T08:25:24.350Z,273.63
2023-01-05T08:26:24.330Z,283.04
2023-01-05T08:27:24.335Z,292.33
2023-01-05T08:28:28.516Z,304.22
2023-01-05T08:29:24.285Z,314.68
2023-01-05T08:30:24.351Z,325.57
2023-01-05T08:31:24.353Z,338.97
2023-01-05T08:32:24.246Z,349.03
2023-01-05T08:33:24.217Z,361.28
2023-01-05T08:34:25.800Z,374.00
2023-01-05T08:35:24.190Z,384.01
2023-01-05T08:36:24.232Z,397.94
2023-01-05T08:37:24.373Z,405.41
2023-01-05T08:38:24.163Z,408.38
2023-01-05T08:39:24.126Z,409.63
2023-01-05T08:40:24.160Z,410.88
2023-01-05T08:41:24.111Z,418.86
2023-01-05T08:42:24.075Z,429.61
2023-01-05T08:43:24.094Z,443.85
2023-01-05T08:44:24.091Z,452.56
2023-01-05T08:45:24.071Z,455.64
2023-01-05T08:46:24.086Z,459.70
2023-01-05T08:47:28.201Z,463.20
2023-01-05T08:48:24.030Z,469.70
2023-01-05T08:49:24.029Z,473.69
2023-01-05T08:50:24.090Z,479.81
2023-01-05T08:51:23.976Z,483.97
2023-01-05T08:52:23.964Z,494.33
2023-01-05T08:53:23.954Z,499.13
2023-01-05T08:54:23.932Z,500.25
2023-01-05T08:55:23.986Z,501.37
2023-01-05T08:56:23.899Z,498.01
2023-01-05T08:57:23.909Z,494.33
2023-01-05T08:58:23.887Z,499.13
2023-01-05T08:59:23.914Z,512.90
2023-01-05T09:00:23.847Z,526.62
2023-01-05T09:01:23.961Z,541.97
2023-01-05T09:02:26.075Z,556.38
2023-01-05T09:03:23.901Z,575.52
2023-01-05T09:04:23.809Z,589.20
2023-01-05T09:05:23.776Z,599.22
2023-01-05T09:06:23.802Z,615.19
2023-01-05T09:07:23.787Z,635.64
2023-01-05T09:08:23.786Z,649.21
2023-01-05T09:09:23.747Z,664.68
2023-01-05T09:10:23.785Z,680.91
2023-01-05T09:11:23.742Z,703.08
2023-01-05T09:12:27.859Z,714.33
2023-01-05T09:13:23.739Z,741.23
2023-01-05T09:14:23.676Z,767.03
2023-01-05T09:15:23.673Z,769.23
2023-01-05T09:17:23.700Z,779.52
2023-01-05T09:18:23.636Z,791.96
2023-01-05T09:19:23.607Z,810.65
2023-01-05T09:20:23.584Z,820.07
2023-01-05T09:21:23.578Z,818.07
2023-01-05T09:22:23.548Z,822.09
2023-01-05T09:23:23.552Z,819.57
2023-01-05T09:24:23.544Z,820.07
2023-01-05T09:25:23.549Z,829.72
2023-01-05T09:26:23.505Z,847.56
2023-01-05T09:27:23.510Z,859.53
2023-01-05T09:28:23.492Z,876.39
2023-01-05T09:29:23.493Z,891.55
2023-01-05T09:30:23.436Z,901.14
2023-01-05T09:31:23.480Z,917.18
2023-01-05T09:32:23.426Z,930.55
2023-01-05T09:33:23.420Z,938.38
2023-01-05T09:34:23.381Z,963.34
2023-01-05T09:35:23.374Z,979.53
2023-01-05T09:36:23.359Z,999.25
2023-01-05T09:37:23.354Z,1013.61
2023-01-05T09:38:23.392Z,1036.35
2023-01-05T09:39:23.351Z,1064.34
2023-01-05T09:40:23.300Z,1084.14
2023-01-05T09:41:23.306Z,1090.32
2023-01-05T09:42:23.303Z,1102.88
2023-01-05T09:43:23.265Z,1118.53
2023-01-05T09:44:23.277Z,1124.16
2023-01-05T09:45:23.274Z,1135.59
2023-01-05T09:46:23.351Z,1143.34
2023-01-05T09:47:23.224Z,1147.26
2023-01-05T09:48:23.282Z,1157.17
2023-01-05T09:49:23.196Z,1171.33
2023-01-05T09:50:23.180Z,1192.17
2023-01-05T09:51:23.181Z,1193.23
2023-01-05T09:52:23.163Z,1206.12
2023-01-05T09:53:23.158Z,1223.74
2023-01-05T09:54:23.185Z,1235.02
2023-01-05T09:55:23.151Z,1253.51
2023-01-05T09:56:58.837Z,1253.51
2023-01-05T09:57:23.139Z,1247.67
2023-01-05T09:58:28.069Z,1225.98
2023-01-05T09:59:23.071Z,1193.23
2023-01-05T10:00:23.038Z,1168.27
2023-01-05T10:01:23.060Z,1147.26
2023-01-05T10:02:23.036Z,1121.34
2023-01-05T10:04:01.832Z,1106.52
2023-01-05T10:04:28.597Z,1093.88
2023-01-05T10:05:23.096Z,1087.66
2023-01-05T10:06:22.970Z,1084.14
2023-01-05T10:07:22.994Z,1095.67
2023-01-05T10:08:22.956Z,1121.34
2023-01-05T10:09:22.923Z,1138.49
2023-01-05T10:10:29.824Z,1144.32
2023-01-05T10:11:22.917Z,1163.19
2023-01-05T10:12:22.894Z,1173.38
2023-01-05T10:13:22.869Z,1200.72
2023-01-05T10:14:22.860Z,1217.07
2023-01-05T10:15:22.849Z,1255.86
2023-01-05T10:16:29.065Z,1279.85
2023-01-05T10:18:22.861Z,1320.20
2023-01-05T10:19:22.789Z,1317.60
2023-01-05T10:20:22.824Z,1325.42
2023-01-05T10:21:22.760Z,1326.73
2023-01-05T10:22:22.736Z,1311.15
2023-01-05T10:23:22.783Z,1281.07
2023-01-05T10:24:22.771Z,1251.17
2023-01-05T10:25:22.742Z,1232.75
2023-01-05T10:26:22.697Z,1214.87
2023-01-05T10:27:25.645Z,1194.30
2023-01-05T10:28:22.668Z,1184.79
2023-01-05T10:29:22.656Z,1179.58
2023-01-05T10:30:22.678Z,1167.25
2023-01-05T10:31:22.736Z,1156.17
2023-01-05T10:32:22.617Z,1151.20
2023-01-05T10:33:27.827Z,1131.76
2023-01-05T10:34:22.624Z,1133.67
2023-01-05T10:35:58.863Z,1137.52
2023-01-05T10:36:57.722Z,1152.19
2023-01-05T10:37:22.569Z,1175.44
2023-01-05T10:38:22.574Z,1173.38
2023-01-05T10:39:22.550Z,1172.35
2023-01-05T10:40:22.556Z,1183.74
2023-01-05T10:41:22.538Z,1185.84
2023-01-05T10:42:22.495Z,1200.72
2023-01-05T10:43:22.483Z,1206.12
2023-01-05T10:44:22.471Z,1209.39
2023-01-05T10:45:22.427Z,1215.97
2023-01-05T10:46:42.623Z,1212.67
2023-01-05T10:47:22.446Z,1214.87
2023-01-05T10:48:22.447Z,1207.21
2023-01-05T10:49:22.404Z,1203.95
2023-01-05T10:50:22.386Z,1203.95
2023-01-05T10:51:22.369Z,1200.72
2023-01-05T10:52:22.369Z,1212.67
2023-01-05T10:53:22.365Z,1219.29
2023-01-05T10:54:22.358Z,1228.23
2023-01-05T10:55:22.304Z,1237.30
2023-01-05T10:56:22.293Z,1246.51
2023-01-05T10:57:22.275Z,1248.83
2023-01-05T10:58:22.293Z,1250.00
2023-01-05T10:59:22.325Z,1253.51
2023-01-05T11:00:22.261Z,1257.04
2023-01-05T11:01:22.387Z,1260.58
2023-01-05T11:02:22.414Z,1266.54
2023-01-05T11:03:33.557Z,1267.74
2023-01-05T11:04:34.979Z,1272.55
2023-01-05T11:05:22.241Z,1273.76
2023-01-05T11:06:22.193Z,1281.07
2023-01-05T11:07:22.139Z,1284.76
2023-01-05T11:08:22.197Z,1285.99
2023-01-05T11:09:22.756Z,1295.94
2023-01-05T11:10:22.091Z,1294.69
2023-01-05T11:11:22.180Z,1302.23
2023-01-05T11:12:22.088Z,1299.71
2023-01-05T11:13:22.185Z,1290.94
2023-01-05T11:14:22.067Z,1290.94
2023-01-05T11:15:22.084Z,1285.99
2023-01-05T11:16:22.097Z,1289.70
2023-01-05T11:17:22.056Z,1285.99
2023-01-05T11:18:22.067Z,1290.94
2023-01-05T11:19:21.993Z,1289.70
2023-01-05T11:20:21.965Z,1295.94
2023-01-05T11:21:21.961Z,1302.23
2023-01-05T11:22:21.961Z,1299.71
2023-01-05T11:23:21.957Z,1303.50
2023-01-05T11:24:21.923Z,1298.45
2023-01-05T11:25:21.903Z,1304.77
2023-01-05T11:26:21.900Z,1295.94
2023-01-05T11:27:21.895Z,1297.19
2023-01-05T11:28:21.918Z,1298.45
2023-01-05T11:29:21.878Z,1290.94
2023-01-05T11:30:21.878Z,1294.69
2023-01-05T11:31:21.992Z,1297.19
2023-01-05T11:32:21.811Z,1303.50
2023-01-05T11:33:25.313Z,1294.69
2023-01-05T11:34:21.807Z,1287.22
2023-01-05T11:35:21.783Z,1288.46
2023-01-05T11:36:21.773Z,1292.19
2023-01-05T11:37:21.747Z,1300.97
2023-01-05T11:38:21.755Z,1315.01
2023-01-05T11:39:21.751Z,1320.20
2023-01-05T11:40:21.718Z,1321.50
2023-01-05T11:41:21.705Z,1328.05
2023-01-05T11:42:25.397Z,1330.69
2023-01-05T11:43:21.828Z,1328.05
2023-01-05T11:44:21.666Z,1328.05
2023-01-05T11:45:21.683Z,1329.36
2023-01-05T11:46:21.670Z,1321.50
2023-01-05T11:47:21.642Z,1322.80
2023-01-05T11:48:21.621Z,1322.80
2023-01-05T11:49:21.608Z,1317.60
2023-01-05T11:50:21.739Z,1316.31
2023-01-05T11:51:27.503Z,1312.44
2023-01-05T11:52:21.544Z,1309.87
2023-01-05T11:53:21.681Z,1304.77
2023-01-05T11:54:21.548Z,1307.32
2023-01-05T11:55:21.493Z,1308.59
2023-01-05T11:56:21.492Z,1311.15
2023-01-05T11:57:21.501Z,1320.20
2023-01-05T11:58:21.566Z,1318.90
2023-01-05T11:59:21.444Z,1312.44
2023-01-05T12:00:21.513Z,1312.44
2023-01-05T12:01:21.524Z,1312.44
2023-01-05T12:02:21.457Z,1307.32
2023-01-05T12:03:21.421Z,1308.59
2023-01-05T12:04:21.444Z,1312.44
2023-01-05T12:05:21.383Z,1308.59
2023-01-05T12:06:21.353Z,1313.72
2023-01-05T12:07:21.360Z,1312.44
2023-01-05T12:08:21.365Z,1312.44
2023-01-05T12:09:21.367Z,1313.72
2023-01-05T12:10:21.322Z,1318.90
2023-01-05T12:11:21.329Z,1315.01
2023-01-05T12:12:21.266Z,1320.20
2023-01-05T12:13:21.425Z,1320.20
2023-01-05T12:14:21.261Z,1317.60
2023-01-05T12:15:21.250Z,1315.01
2023-01-05T12:16:21.277Z,1315.01
2023-01-05T12:17:21.224Z,1325.42
2023-01-05T12:18:21.208Z,1322.80
2023-01-05T12:19:21.231Z,1328.05
2023-01-05T12:20:21.185Z,1326.73
2023-01-05T12:21:21.173Z,1321.50
2023-01-05T12:22:21.162Z,1325.42
2023-01-05T12:23:21.175Z,1320.20
2023-01-05T12:24:21.135Z,1317.60
2023-01-05T12:25:21.123Z,1316.31
2023-01-05T12:26:21.078Z,1312.44
2023-01-05T12:27:21.097Z,1309.87
2023-01-05T12:28:39.529Z,1306.04
2023-01-05T12:34:01.660Z,1322.80
2023-01-05T12:34:20.984Z,1315.01
2023-01-05T12:35:20.997Z,1315.01
2023-01-05T12:36:20.998Z,1317.60
2023-01-05T12:37:21.005Z,1318.90